Terminal Aerodrome Forecast
Issued by NWS Cleveland, OH

Home | Current Version | Previous Version | Graphics & Text | Print | Product List | Glossary On
Versions: 1 2 3 4 5 6 7 8 9 10 11 12 13 14 15 16
000
FTUS41 KCLE 161735
TAFERI
TAF
KERI 161735Z 1618/1718 28020G30KT P6SM VCSH OVC030
     FM170100 31012G22KT P6SM VCSH OVC030
     FM170600 33010KT P6SM OVC030
     FM171400 23005KT P6SM OVC035=

USA.gov is the U.S. government's official web portal to all federal, state and local government web resources and services.